createdAt,value
2023-06-19T00:04:19.557Z,81.79
2023-06-19T00:09:21.525Z,81.96
2023-06-19T00:14:23.416Z,83.25
2023-06-19T00:19:25.138Z,82.05
2023-06-19T00:24:26.971Z,82.24
2023-06-19T00:29:29.418Z,81.57
2023-06-19T00:34:32.697Z,81.57
2023-06-19T00:39:34.510Z,82.36
2023-06-19T00:44:36.282Z,82.56
2023-06-19T00:49:38.294Z,82.51
2023-06-19T00:54:40.582Z,83.02
2023-06-19T00:59:42.473Z,83.30
2023-06-19T01:04:44.249Z,82.95
2023-06-19T01:09:54.385Z,83.48
2023-06-19T01:15:00.065Z,83.60
2023-06-19T01:20:08.055Z,83.75
2023-06-19T01:25:10.082Z,84.18
2023-06-19T01:30:13.911Z,84.03
2023-06-19T01:35:18.784Z,84.43
2023-06-19T01:40:26.119Z,84.40
2023-06-19T01:45:30.797Z,84.45
2023-06-19T01:50:32.783Z,84.76
2023-06-19T01:55:34.576Z,84.80
2023-06-19T02:00:36.434Z,84.72
2023-06-19T02:05:40.914Z,84.71
2023-06-19T02:10:42.950Z,84.94
2023-06-19T02:15:44.789Z,85.59
2023-06-19T02:20:46.591Z,85.85
2023-06-19T02:25:48.301Z,85.85
2023-06-19T02:30:55.345Z,86.05
2023-06-19T02:36:00.488Z,85.64
2023-06-19T02:41:02.967Z,86.04
2023-06-19T02:46:04.802Z,86.47
2023-06-19T02:51:06.866Z,86.40
2023-06-19T02:56:09.099Z,86.43
2023-06-19T03:01:11.115Z,86.73
2023-06-19T03:06:14.553Z,86.58
2023-06-19T03:11:16.582Z,86.68
2023-06-19T03:16:18.905Z,86.91
2023-06-19T03:21:21.254Z,86.80
2023-06-19T03:26:26.045Z,86.91
2023-06-19T03:31:28.935Z,87.01
2023-06-19T03:36:33.458Z,86.96
2023-06-19T03:41:42.258Z,86.60
2023-06-19T03:46:44.194Z,86.52
2023-06-19T03:51:46.155Z,87.08
2023-06-19T03:56:47.826Z,86.92
2023-06-19T04:01:49.780Z,86.88
2023-06-19T04:06:52.925Z,85.71
2023-06-19T04:11:54.857Z,85.63
2023-06-19T04:16:58.549Z,84.87
2023-06-19T04:22:02.854Z,83.87
2023-06-19T04:27:04.909Z,82.40
2023-06-19T04:32:12.411Z,82.17
2023-06-19T04:37:14.337Z,80.53
2023-06-19T04:42:21.616Z,80.45
2023-06-19T04:47:26.780Z,79.53
2023-06-19T04:52:34.424Z,79.32
2023-06-19T04:57:37.971Z,78.04
2023-06-19T05:02:40.420Z,77.03
2023-06-19T05:07:42.526Z,77.30
2023-06-19T05:12:44.550Z,78.30
2023-06-19T05:17:47.838Z,76.79
2023-06-19T05:22:49.677Z,75.88
2023-06-19T05:27:51.498Z,74.29
2023-06-19T05:32:53.260Z,74.11
2023-06-19T05:37:55.049Z,72.76
2023-06-19T05:42:57.349Z,72.19
2023-06-19T05:47:59.206Z,71.95
2023-06-19T05:53:01.054Z,70.95
2023-06-19T05:58:03.776Z,70.45
2023-06-19T06:03:05.675Z,69.36
2023-06-19T06:08:08.144Z,67.27
2023-06-19T06:13:09.891Z,67.09
2023-06-19T06:18:11.626Z,66.97
2023-06-19T06:23:13.996Z,66.39
2023-06-19T06:28:16.139Z,66.18
2023-06-19T06:33:20.046Z,64.93
2023-06-19T06:38:21.954Z,63.62
2023-06-19T06:43:23.701Z,64.38
2023-06-19T06:48:25.421Z,64.68
2023-06-19T06:53:27.244Z,62.82
2023-06-19T06:58:28.910Z,63.50
2023-06-19T07:03:32.729Z,62.12
2023-06-19T07:08:34.747Z,63.50
2023-06-19T07:13:36.860Z,60.74
2023-06-19T07:18:40.023Z,61.50
2023-06-19T07:23:43.638Z,61.29
2023-06-19T07:28:45.564Z,59.99
2023-06-19T07:33:47.227Z,60.54
2023-06-19T07:38:48.860Z,58.47
2023-06-19T07:43:50.624Z,59.98
2023-06-19T07:48:52.454Z,59.79
2023-06-19T07:53:54.062Z,57.52
2023-06-19T07:58:55.975Z,59.97
2023-06-19T08:03:58.021Z,59.00
2023-06-19T08:08:59.717Z,58.35
2023-06-19T08:14:01.460Z,56.27
2023-06-19T08:19:03.287Z,57.63
2023-06-19T08:24:05.437Z,55.54
2023-06-19T08:29:07.142Z,55.77
2023-06-19T08:34:10.778Z,55.40
2023-06-19T08:39:12.873Z,55.91
2023-06-19T08:44:14.762Z,54.99
2023-06-19T08:49:17.522Z,55.76
2023-06-19T08:54:20.967Z,53.80
2023-06-19T08:59:22.755Z,51.75
2023-06-19T09:04:29.098Z,52.13
2023-06-19T09:09:32.105Z,51.78
2023-06-19T09:14:47.236Z,51.70
2023-06-19T09:19:53.098Z,52.15
2023-06-19T09:24:54.963Z,52.33
2023-06-19T09:29:57.425Z,51.18
2023-06-19T09:35:01.274Z,48.93
2023-06-19T09:40:11.855Z,50.00
2023-06-19T09:45:19.834Z,49.10
2023-06-19T09:50:24.509Z,48.30
2023-06-19T09:55:31.886Z,48.30
2023-06-19T10:00:34.495Z,44.47
2023-06-19T10:05:37.473Z,46.35
2023-06-19T10:10:49.491Z,45.80
2023-06-19T10:15:51.173Z,45.78
2023-06-19T10:20:53.240Z,44.64
2023-06-19T10:25:55.017Z,45.11
2023-06-19T10:30:58.021Z,45.28
2023-06-19T10:36:01.402Z,45.92
2023-06-19T10:41:03.176Z,45.85
2023-06-19T10:46:05.520Z,45.95
2023-06-19T10:51:07.353Z,45.07
2023-06-19T10:56:09.001Z,46.03
2023-06-19T11:01:11.884Z,45.35
2023-06-19T11:06:20.990Z,45.14
2023-06-19T11:11:22.847Z,44.35
2023-06-19T11:16:24.955Z,43.27
2023-06-19T11:21:39.623Z,44.37
2023-06-19T11:26:52.622Z,45.76
2023-06-19T11:32:26.181Z,45.69
2023-06-19T11:37:30.681Z,44.92
2023-06-19T11:42:33.284Z,44.89
2023-06-19T11:47:35.583Z,44.48
2023-06-19T11:52:37.715Z,44.77
2023-06-19T11:57:40.413Z,43.09
2023-06-19T12:02:42.280Z,43.44
2023-06-19T12:07:44.246Z,40.71
2023-06-19T12:12:46.015Z,42.65
2023-06-19T12:17:48.323Z,41.50
2023-06-19T12:22:50.615Z,40.82
2023-06-19T12:27:55.478Z,41.43
2023-06-19T12:32:58.141Z,40.14
2023-06-19T12:37:59.839Z,41.31
2023-06-19T12:43:01.512Z,40.78
2023-06-19T12:48:03.227Z,40.89
2023-06-19T12:53:05.218Z,39.78
2023-06-19T12:58:07.049Z,38.66
2023-06-19T13:03:09.021Z,40.53
2023-06-19T13:08:12.177Z,41.89
2023-06-19T13:13:14.572Z,39.78
2023-06-19T13:18:16.680Z,38.31
2023-06-19T13:23:18.452Z,39.33
2023-06-19T13:28:20.296Z,39.90
2023-06-19T13:33:22.064Z,39.28
2023-06-19T13:38:23.970Z,38.28
2023-06-19T13:43:26.082Z,40.61
2023-06-19T13:48:28.013Z,39.99
2023-06-19T13:53:30.866Z,39.63
2023-06-19T13:58:32.560Z,40.20
2023-06-19T14:03:35.316Z,40.60
2023-06-19T14:08:36.994Z,38.42
2023-06-19T14:13:38.698Z,39.86
2023-06-19T14:18:40.414Z,41.69
2023-06-19T14:23:44.472Z,41.15
2023-06-19T14:28:46.503Z,39.58
2023-06-19T14:33:48.587Z,38.41
2023-06-19T14:38:50.356Z,38.91
2023-06-19T14:43:52.091Z,38.72
2023-06-19T14:48:53.768Z,39.91
2023-06-19T14:53:55.756Z,39.99
2023-06-19T14:58:57.771Z,40.13
2023-06-19T15:03:59.523Z,41.28
2023-06-19T15:09:03.140Z,41.01
2023-06-19T15:14:07.034Z,40.22
2023-06-19T15:19:09.078Z,40.87
2023-06-19T15:24:10.965Z,41.62
2023-06-19T15:29:12.903Z,42.00
2023-06-19T15:34:14.632Z,43.19
2023-06-19T15:39:16.339Z,42.60
2023-06-19T15:44:18.016Z,42.96
2023-06-19T15:49:20.104Z,43.31
2023-06-19T15:54:21.866Z,42.71
2023-06-19T15:59:23.534Z,42.83
2023-06-19T16:04:25.439Z,42.36
2023-06-19T16:09:27.866Z,42.85
2023-06-19T16:14:29.784Z,43.38
2023-06-19T16:19:31.847Z,42.56
2023-06-19T16:24:33.691Z,43.29
2023-06-19T16:29:35.467Z,43.94
2023-06-19T16:34:37.389Z,44.05
2023-06-19T16:39:39.217Z,44.75
2023-06-19T16:44:41.527Z,44.67
2023-06-19T16:49:43.245Z,45.26
2023-06-19T16:54:44.910Z,45.32
2023-06-19T16:59:46.818Z,45.60
2023-06-19T17:04:48.515Z,46.59
2023-06-19T17:09:50.488Z,47.45
2023-06-19T17:14:52.221Z,47.65
2023-06-19T17:19:54.637Z,47.44
2023-06-19T17:24:56.624Z,48.54
2023-06-19T17:29:58.425Z,49.86
2023-06-19T17:35:03.238Z,49.45
2023-06-19T17:40:06.720Z,49.94
2023-06-19T17:45:10.021Z,51.57
2023-06-19T17:50:13.136Z,52.04
2023-06-19T17:55:14.973Z,51.99
2023-06-19T18:00:17.211Z,53.02
2023-06-19T18:05:18.977Z,52.71
2023-06-19T18:10:20.724Z,53.07
2023-06-19T18:15:22.416Z,53.51
2023-06-19T18:20:24.366Z,53.82
2023-06-19T18:25:26.398Z,54.91
2023-06-19T18:30:28.270Z,55.07
2023-06-19T18:35:31.138Z,55.16
2023-06-19T18:40:33.160Z,55.71
2023-06-19T18:45:35.173Z,57.27
2023-06-19T18:50:37.513Z,56.69
2023-06-19T18:55:43.195Z,56.73
2023-06-19T19:00:46.618Z,56.93
2023-06-19T19:05:49.589Z,57.94
2023-06-19T19:10:51.556Z,58.19
2023-06-19T19:15:53.352Z,57.90
2023-06-19T19:20:55.317Z,58.41
2023-06-19T19:25:57.372Z,59.24
2023-06-19T19:30:58.981Z,59.58
2023-06-19T19:36:02.282Z,59.83
2023-06-19T19:41:03.969Z,60.21
2023-06-19T19:46:05.713Z,60.00
2023-06-19T19:51:07.459Z,62.46
2023-06-19T19:56:09.447Z,62.61
2023-06-19T20:01:11.296Z,62.81
2023-06-19T20:06:13.204Z,64.22
2023-06-19T20:11:15.211Z,64.45
2023-06-19T20:16:16.953Z,63.40
2023-06-19T20:21:18.672Z,63.48
2023-06-19T20:26:20.440Z,63.85
2023-06-19T20:31:22.098Z,65.21
2023-06-19T20:36:25.092Z,66.12
2023-06-19T20:41:26.966Z,66.19
2023-06-19T20:46:28.808Z,66.65
2023-06-19T20:51:30.518Z,67.17
2023-06-19T20:56:32.576Z,67.68
2023-06-19T21:01:34.411Z,67.28
2023-06-19T21:06:36.490Z,66.34
2023-06-19T21:11:41.447Z,66.49
2023-06-19T21:16:43.291Z,67.60
2023-06-19T21:21:45.388Z,67.76
2023-06-19T21:26:47.457Z,68.76
2023-06-19T21:31:49.170Z,69.54
2023-06-19T21:36:51.288Z,69.94
2023-06-19T21:41:53.124Z,70.25
2023-06-19T21:46:55.047Z,70.99
2023-06-19T21:51:56.874Z,70.88
2023-06-19T21:56:58.972Z,70.27
2023-06-19T22:02:00.679Z,70.54
2023-06-19T22:07:02.500Z,71.16
2023-06-19T22:12:04.602Z,71.49
2023-06-19T22:17:07.151Z,72.02
2023-06-19T22:22:08.947Z,72.49
2023-06-19T22:27:10.893Z,74.19
2023-06-19T22:32:12.519Z,74.48
2023-06-19T22:37:16.145Z,74.47
2023-06-19T22:42:19.126Z,74.19
2023-06-19T22:47:21.743Z,74.34
2023-06-19T22:52:24.332Z,74.63
2023-06-19T22:57:26.103Z,74.69
2023-06-19T23:02:27.931Z,74.91
2023-06-19T23:07:32.823Z,74.83
2023-06-19T23:12:35.454Z,75.85
2023-06-19T23:17:37.207Z,75.37
2023-06-19T23:22:40.974Z,75.28
2023-06-19T23:27:42.696Z,75.44
2023-06-19T23:32:44.632Z,76.26
2023-06-19T23:37:46.576Z,76.14
2023-06-19T23:42:48.410Z,76.47
2023-06-19T23:47:50.299Z,77.17
2023-06-19T23:52:52.240Z,76.59
2023-06-19T23:57:53.904Z,77.47
